sensor_id;sensor_type;location;lat;lon;timestamp;P1;durP1;ratioP1;P2;durP2;ratioP2
5149;SDS011;2593;52.466;13.436;2022-10-15T00:01:31;47.40;;;24.47;;
5149;SDS011;2593;52.466;13.436;2022-10-15T00:03:56;48.33;;;24.97;;
5149;SDS011;2593;52.466;13.436;2022-10-15T00:06:24;40.20;;;23.57;;
5149;SDS011;2593;52.466;13.436;2022-10-15T00:08:50;44.53;;;25.53;;
5149;SDS011;2593;52.466;13.436;2022-10-15T00:11:19;46.13;;;21.67;;
5149;SDS011;2593;52.466;13.436;2022-10-15T00:13:48;42.80;;;22.30;;
5149;SDS011;2593;52.466;13.436;2022-10-15T00:16:17;35.60;;;22.77;;
5149;SDS011;2593;52.466;13.436;2022-10-15T00:18:45;38.17;;;23.00;;
5149;SDS011;2593;52.466;13.436;2022-10-15T00:21:12;54.07;;;23.20;;
5149;SDS011;2593;52.466;13.436;2022-10-15T00:23:39;42.53;;;23.33;;
5149;SDS011;2593;52.466;13.436;2022-10-15T00:26:09;41.00;;;23.90;;
5149;SDS011;2593;52.466;13.436;2022-10-15T00:28:40;41.10;;;23.20;;
5149;SDS011;2593;52.466;13.436;2022-10-15T00:31:08;41.23;;;22.63;;
5149;SDS011;2593;52.466;13.436;2022-10-15T00:33:35;38.70;;;24.00;;
5149;SDS011;2593;52.466;13.436;2022-10-15T00:36:03;36.70;;;23.00;;
5149;SDS011;2593;52.466;13.436;2022-10-15T00:38:30;40.90;;;24.37;;
5149;SDS011;2593;52.466;13.436;2022-10-15T00:40:57;36.27;;;22.37;;
5149;SDS011;2593;52.466;13.436;2022-10-15T00:46:54;37.40;;;23.17;;
5149;SDS011;2593;52.466;13.436;2022-10-15T00:49:19;36.10;;;21.60;;
5149;SDS011;2593;52.466;13.436;2022-10-15T00:51:55;36.53;;;21.80;;
5149;SDS011;2593;52.466;13.436;2022-10-15T00:54:24;35.90;;;21.03;;
5149;SDS011;2593;52.466;13.436;2022-10-15T00:56:52;39.20;;;22.40;;
5149;SDS011;2593;52.466;13.436;2022-10-15T00:59:19;34.00;;;20.90;;
5149;SDS011;2593;52.466;13.436;2022-10-15T01:01:48;35.23;;;20.10;;
5149;SDS011;2593;52.466;13.436;2022-10-15T01:04:13;33.73;;;21.90;;
5149;SDS011;2593;52.466;13.436;2022-10-15T01:06:41;34.57;;;20.60;;
5149;SDS011;2593;52.466;13.436;2022-10-15T01:09:07;31.53;;;20.33;;
5149;SDS011;2593;52.466;13.436;2022-10-15T01:11:47;32.97;;;20.70;;
5149;SDS011;2593;52.466;13.436;2022-10-15T01:17:06;35.67;;;20.77;;
5149;SDS011;2593;52.466;13.436;2022-10-15T01:19:56;37.13;;;20.87;;
5149;SDS011;2593;52.466;13.436;2022-10-15T01:25:54;31.93;;;19.90;;
5149;SDS011;2593;52.466;13.436;2022-10-15T01:34:20;37.27;;;21.87;;
5149;SDS011;2593;52.466;13.436;2022-10-15T01:37:04;40.60;;;21.97;;
5149;SDS011;2593;52.466;13.436;2022-10-15T01:40:04;44.67;;;23.87;;
5149;SDS011;2593;52.466;13.436;2022-10-15T01:42:38;38.40;;;21.50;;
5149;SDS011;2593;52.466;13.436;2022-10-15T01:45:09;38.47;;;22.10;;
5149;SDS011;2593;52.466;13.436;2022-10-15T01:50:34;39.37;;;21.97;;
5149;SDS011;2593;52.466;13.436;2022-10-15T01:53:04;36.07;;;22.03;;
5149;SDS011;2593;52.466;13.436;2022-10-15T01:55:32;36.20;;;22.07;;
5149;SDS011;2593;52.466;13.436;2022-10-15T01:57:59;37.10;;;20.40;;
5149;SDS011;2593;52.466;13.436;2022-10-15T02:00:27;43.57;;;22.20;;
5149;SDS011;2593;52.466;13.436;2022-10-15T02:02:52;35.33;;;20.20;;
5149;SDS011;2593;52.466;13.436;2022-10-15T02:05:25;41.97;;;22.83;;
5149;SDS011;2593;52.466;13.436;2022-10-15T02:07:56;41.00;;;24.13;;
5149;SDS011;2593;52.466;13.436;2022-10-15T02:11:14;32.40;;;19.90;;
5149;SDS011;2593;52.466;13.436;2022-10-15T02:16:05;32.33;;;20.70;;
5149;SDS011;2593;52.466;13.436;2022-10-15T02:23:57;34.60;;;20.80;;
5149;SDS011;2593;52.466;13.436;2022-10-15T02:26:31;36.60;;;21.10;;
5149;SDS011;2593;52.466;13.436;2022-10-15T02:28:58;35.87;;;21.13;;
5149;SDS011;2593;52.466;13.436;2022-10-15T02:31:26;32.07;;;21.00;;
5149;SDS011;2593;52.466;13.436;2022-10-15T02:33:55;31.03;;;20.87;;
5149;SDS011;2593;52.466;13.436;2022-10-15T02:36:25;33.17;;;20.40;;
5149;SDS011;2593;52.466;13.436;2022-10-15T02:38:51;32.43;;;20.77;;
5149;SDS011;2593;52.466;13.436;2022-10-15T02:41:19;35.63;;;21.27;;
5149;SDS011;2593;52.466;13.436;2022-10-15T02:43:45;47.13;;;20.77;;
5149;SDS011;2593;52.466;13.436;2022-10-15T02:46:11;32.57;;;20.30;;
5149;SDS011;2593;52.466;13.436;2022-10-15T02:48:38;32.93;;;19.27;;
5149;SDS011;2593;52.466;13.436;2022-10-15T02:51:04;35.80;;;20.07;;
5149;SDS011;2593;52.466;13.436;2022-10-15T02:53:30;39.40;;;21.40;;
5149;SDS011;2593;52.466;13.436;2022-10-15T02:55:55;34.30;;;21.10;;
5149;SDS011;2593;52.466;13.436;2022-10-15T02:58:21;33.20;;;20.40;;
5149;SDS011;2593;52.466;13.436;2022-10-15T03:00:47;32.03;;;20.20;;
5149;SDS011;2593;52.466;13.436;2022-10-15T03:03:13;32.13;;;20.40;;
5149;SDS011;2593;52.466;13.436;2022-10-15T03:05:38;35.27;;;19.83;;
5149;SDS011;2593;52.466;13.436;2022-10-15T03:08:04;33.80;;;21.60;;
5149;SDS011;2593;52.466;13.436;2022-10-15T03:10:29;32.80;;;20.00;;
5149;SDS011;2593;52.466;13.436;2022-10-15T03:13:00;37.03;;;20.57;;
5149;SDS011;2593;52.466;13.436;2022-10-15T03:15:27;46.00;;;21.00;;
5149;SDS011;2593;52.466;13.436;2022-10-15T03:17:52;40.43;;;20.07;;
5149;SDS011;2593;52.466;13.436;2022-10-15T03:20:18;36.37;;;20.80;;
5149;SDS011;2593;52.466;13.436;2022-10-15T03:22:43;31.00;;;20.73;;
5149;SDS011;2593;52.466;13.436;2022-10-15T03:25:09;33.40;;;20.70;;
5149;SDS011;2593;52.466;13.436;2022-10-15T03:27:34;39.07;;;22.00;;
5149;SDS011;2593;52.466;13.436;2022-10-15T03:30:00;32.47;;;21.27;;
5149;SDS011;2593;52.466;13.436;2022-10-15T03:32:26;42.03;;;21.93;;
5149;SDS011;2593;52.466;13.436;2022-10-15T03:34:52;32.73;;;19.53;;
5149;SDS011;2593;52.466;13.436;2022-10-15T03:37:17;34.77;;;21.37;;
5149;SDS011;2593;52.466;13.436;2022-10-15T03:39:43;37.53;;;23.00;;
5149;SDS011;2593;52.466;13.436;2022-10-15T03:42:09;35.87;;;22.00;;
5149;SDS011;2593;52.466;13.436;2022-10-15T03:44:34;38.20;;;22.50;;
5149;SDS011;2593;52.466;13.436;2022-10-15T03:47:00;34.03;;;20.00;;
5149;SDS011;2593;52.466;13.436;2022-10-15T03:49:25;36.73;;;21.43;;
5149;SDS011;2593;52.466;13.436;2022-10-15T03:51:51;33.63;;;21.43;;
5149;SDS011;2593;52.466;13.436;2022-10-15T03:54:16;36.73;;;21.90;;
5149;SDS011;2593;52.466;13.436;2022-10-15T03:56:42;35.00;;;21.10;;
5149;SDS011;2593;52.466;13.436;2022-10-15T03:59:08;42.10;;;21.80;;
5149;SDS011;2593;52.466;13.436;2022-10-15T04:01:33;33.20;;;20.90;;
5149;SDS011;2593;52.466;13.436;2022-10-15T04:03:59;43.17;;;23.30;;
5149;SDS011;2593;52.466;13.436;2022-10-15T04:06:24;36.07;;;21.63;;
5149;SDS011;2593;52.466;13.436;2022-10-15T04:08:50;36.53;;;22.00;;
5149;SDS011;2593;52.466;13.436;2022-10-15T04:11:15;38.03;;;21.77;;
5149;SDS011;2593;52.466;13.436;2022-10-15T04:13:41;31.17;;;20.70;;
5149;SDS011;2593;52.466;13.436;2022-10-15T04:16:07;36.93;;;21.40;;
5149;SDS011;2593;52.466;13.436;2022-10-15T04:18:32;43.73;;;22.97;;
5149;SDS011;2593;52.466;13.436;2022-10-15T04:20:58;38.37;;;20.67;;
5149;SDS011;2593;52.466;13.436;2022-10-15T04:23:24;34.70;;;21.10;;
5149;SDS011;2593;52.466;13.436;2022-10-15T04:25:50;29.33;;;20.67;;
5149;SDS011;2593;52.466;13.436;2022-10-15T04:28:15;37.43;;;20.67;;
5149;SDS011;2593;52.466;13.436;2022-10-15T04:30:41;40.60;;;22.97;;
5149;SDS011;2593;52.466;13.436;2022-10-15T04:33:07;33.50;;;21.60;;
5149;SDS011;2593;52.466;13.436;2022-10-15T04:35:33;34.47;;;22.87;;
5149;SDS011;2593;52.466;13.436;2022-10-15T04:37:59;34.47;;;21.33;;
5149;SDS011;2593;52.466;13.436;2022-10-15T04:40:25;33.77;;;21.53;;
5149;SDS011;2593;52.466;13.436;2022-10-15T04:42:51;45.60;;;22.70;;
5149;SDS011;2593;52.466;13.436;2022-10-15T04:45:17;31.80;;;21.40;;
5149;SDS011;2593;52.466;13.436;2022-10-15T04:47:43;36.30;;;21.43;;
5149;SDS011;2593;52.466;13.436;2022-10-15T04:50:09;37.50;;;21.97;;
5149;SDS011;2593;52.466;13.436;2022-10-15T04:52:34;42.90;;;22.40;;
5149;SDS011;2593;52.466;13.436;2022-10-15T04:55:00;31.50;;;20.20;;
5149;SDS011;2593;52.466;13.436;2022-10-15T04:57:27;43.80;;;24.00;;
5149;SDS011;2593;52.466;13.436;2022-10-15T04:59:52;38.63;;;22.23;;
5149;SDS011;2593;52.466;13.436;2022-10-15T05:02:18;32.73;;;20.00;;
5149;SDS011;2593;52.466;13.436;2022-10-15T05:04:44;34.30;;;19.57;;
5149;SDS011;2593;52.466;13.436;2022-10-15T05:07:09;31.97;;;19.37;;
5149;SDS011;2593;52.466;13.436;2022-10-15T05:09:35;35.77;;;21.10;;
5149;SDS011;2593;52.466;13.436;2022-10-15T05:12:01;30.50;;;19.53;;
5149;SDS011;2593;52.466;13.436;2022-10-15T05:14:26;40.23;;;20.67;;
5149;SDS011;2593;52.466;13.436;2022-10-15T05:16:52;33.63;;;19.80;;
5149;SDS011;2593;52.466;13.436;2022-10-15T05:19:17;40.73;;;21.13;;
5149;SDS011;2593;52.466;13.436;2022-10-15T05:21:43;35.43;;;19.43;;
5149;SDS011;2593;52.466;13.436;2022-10-15T05:24:09;34.20;;;20.27;;
5149;SDS011;2593;52.466;13.436;2022-10-15T05:26:35;34.33;;;20.80;;
5149;SDS011;2593;52.466;13.436;2022-10-15T05:29:00;32.00;;;21.00;;
5149;SDS011;2593;52.466;13.436;2022-10-15T05:31:27;34.83;;;19.87;;
5149;SDS011;2593;52.466;13.436;2022-10-15T05:33:54;29.50;;;18.53;;
5149;SDS011;2593;52.466;13.436;2022-10-15T05:36:24;29.00;;;19.03;;
5149;SDS011;2593;52.466;13.436;2022-10-15T05:38:52;35.93;;;20.47;;
5149;SDS011;2593;52.466;13.436;2022-10-15T05:41:21;33.83;;;19.60;;
5149;SDS011;2593;52.466;13.436;2022-10-15T05:43:48;26.40;;;18.00;;
5149;SDS011;2593;52.466;13.436;2022-10-15T05:46:15;28.03;;;17.73;;
5149;SDS011;2593;52.466;13.436;2022-10-15T05:48:41;36.20;;;17.90;;
5149;SDS011;2593;52.466;13.436;2022-10-15T05:51:10;27.00;;;18.10;;
5149;SDS011;2593;52.466;13.436;2022-10-15T05:53:36;29.70;;;18.10;;
5149;SDS011;2593;52.466;13.436;2022-10-15T05:56:03;30.37;;;18.53;;
5149;SDS011;2593;52.466;13.436;2022-10-15T05:58:29;29.70;;;17.77;;
5149;SDS011;2593;52.466;13.436;2022-10-15T06:00:58;35.03;;;18.87;;
5149;SDS011;2593;52.466;13.436;2022-10-15T06:03:26;23.50;;;15.97;;
5149;SDS011;2593;52.466;13.436;2022-10-15T06:05:52;25.20;;;16.80;;
5149;SDS011;2593;52.466;13.436;2022-10-15T06:08:18;27.67;;;17.00;;
5149;SDS011;2593;52.466;13.436;2022-10-15T06:10:45;27.93;;;18.10;;
5149;SDS011;2593;52.466;13.436;2022-10-15T06:13:11;37.63;;;17.33;;
5149;SDS011;2593;52.466;13.436;2022-10-15T06:15:38;28.63;;;16.90;;
5149;SDS011;2593;52.466;13.436;2022-10-15T06:18:05;23.53;;;15.50;;
5149;SDS011;2593;52.466;13.436;2022-10-15T06:20:31;32.13;;;17.00;;
5149;SDS011;2593;52.466;13.436;2022-10-15T06:22:57;30.30;;;16.60;;
5149;SDS011;2593;52.466;13.436;2022-10-15T06:25:24;26.40;;;17.17;;
5149;SDS011;2593;52.466;13.436;2022-10-15T06:27:50;26.60;;;16.60;;
5149;SDS011;2593;52.466;13.436;2022-10-15T06:30:17;29.07;;;16.37;;
5149;SDS011;2593;52.466;13.436;2022-10-15T06:32:49;27.53;;;17.10;;
5149;SDS011;2593;52.466;13.436;2022-10-15T06:35:16;24.10;;;16.17;;
5149;SDS011;2593;52.466;13.436;2022-10-15T06:37:42;24.87;;;15.57;;
5149;SDS011;2593;52.466;13.436;2022-10-15T06:40:08;27.00;;;16.10;;
5149;SDS011;2593;52.466;13.436;2022-10-15T06:42:35;25.63;;;15.63;;
5149;SDS011;2593;52.466;13.436;2022-10-15T06:45:00;23.90;;;15.97;;
5149;SDS011;2593;52.466;13.436;2022-10-15T06:47:26;23.43;;;15.67;;
5149;SDS011;2593;52.466;13.436;2022-10-15T06:49:52;60.37;;;15.80;;
5149;SDS011;2593;52.466;13.436;2022-10-15T06:52:17;23.40;;;15.97;;
5149;SDS011;2593;52.466;13.436;2022-10-15T06:54:43;24.50;;;15.67;;
5149;SDS011;2593;52.466;13.436;2022-10-15T06:57:08;25.40;;;14.90;;
5149;SDS011;2593;52.466;13.436;2022-10-15T06:59:34;26.17;;;13.83;;
5149;SDS011;2593;52.466;13.436;2022-10-15T07:01:59;22.07;;;15.13;;
5149;SDS011;2593;52.466;13.436;2022-10-15T07:04:25;19.93;;;13.10;;
5149;SDS011;2593;52.466;13.436;2022-10-15T07:06:51;18.87;;;13.17;;
5149;SDS011;2593;52.466;13.436;2022-10-15T07:09:16;35.30;;;15.33;;
5149;SDS011;2593;52.466;13.436;2022-10-15T07:11:43;29.77;;;14.00;;
5149;SDS011;2593;52.466;13.436;2022-10-15T07:14:08;24.47;;;14.33;;
5149;SDS011;2593;52.466;13.436;2022-10-15T07:16:34;50.67;;;14.57;;
5149;SDS011;2593;52.466;13.436;2022-10-15T07:19:01;16.53;;;11.90;;
5149;SDS011;2593;52.466;13.436;2022-10-15T07:21:27;19.80;;;13.43;;
5149;SDS011;2593;52.466;13.436;2022-10-15T07:23:52;18.37;;;12.90;;
5149;SDS011;2593;52.466;13.436;2022-10-15T07:26:18;19.30;;;12.43;;
5149;SDS011;2593;52.466;13.436;2022-10-15T07:28:44;17.53;;;11.60;;
5149;SDS011;2593;52.466;13.436;2022-10-15T07:31:09;15.13;;;11.87;;
5149;SDS011;2593;52.466;13.436;2022-10-15T07:33:35;34.53;;;13.90;;
5149;SDS011;2593;52.466;13.436;2022-10-15T07:36:05;15.63;;;12.10;;
5149;SDS011;2593;52.466;13.436;2022-10-15T07:38:32;17.83;;;11.90;;
5149;SDS011;2593;52.466;13.436;2022-10-15T07:40:59;20.20;;;12.27;;
5149;SDS011;2593;52.466;13.436;2022-10-15T07:43:26;20.57;;;10.60;;
5149;SDS011;2593;52.466;13.436;2022-10-15T07:45:52;18.50;;;11.80;;
5149;SDS011;2593;52.466;13.436;2022-10-15T07:48:17;19.80;;;12.43;;
5149;SDS011;2593;52.466;13.436;2022-10-15T07:50:43;17.67;;;10.87;;
5149;SDS011;2593;52.466;13.436;2022-10-15T07:53:09;16.83;;;10.50;;
5149;SDS011;2593;52.466;13.436;2022-10-15T07:55:36;13.20;;;10.67;;
5149;SDS011;2593;52.466;13.436;2022-10-15T07:58:02;18.57;;;10.47;;
5149;SDS011;2593;52.466;13.436;2022-10-15T08:00:29;15.00;;;10.13;;
5149;SDS011;2593;52.466;13.436;2022-10-15T08:02:56;11.40;;;8.63;;
5149;SDS011;2593;52.466;13.436;2022-10-15T08:05:22;11.77;;;7.87;;
5149;SDS011;2593;52.466;13.436;2022-10-15T08:07:47;10.00;;;7.43;;
5149;SDS011;2593;52.466;13.436;2022-10-15T08:10:13;14.63;;;8.10;;
5149;SDS011;2593;52.466;13.436;2022-10-15T08:12:40;13.03;;;7.53;;
5149;SDS011;2593;52.466;13.436;2022-10-15T08:15:05;7.87;;;6.20;;
5149;SDS011;2593;52.466;13.436;2022-10-15T08:17:31;10.03;;;7.50;;
5149;SDS011;2593;52.466;13.436;2022-10-15T08:19:57;11.10;;;6.40;;
5149;SDS011;2593;52.466;13.436;2022-10-15T08:22:22;9.10;;;7.80;;
5149;SDS011;2593;52.466;13.436;2022-10-15T08:24:48;8.43;;;6.60;;
5149;SDS011;2593;52.466;13.436;2022-10-15T08:27:13;10.43;;;7.93;;
5149;SDS011;2593;52.466;13.436;2022-10-15T08:29:39;8.20;;;6.70;;
5149;SDS011;2593;52.466;13.436;2022-10-15T08:32:05;9.30;;;7.30;;
5149;SDS011;2593;52.466;13.436;2022-10-15T08:34:30;11.00;;;7.87;;
5149;SDS011;2593;52.466;13.436;2022-10-15T08:36:56;10.63;;;8.23;;
5149;SDS011;2593;52.466;13.436;2022-10-15T08:39:21;19.90;;;7.80;;
5149;SDS011;2593;52.466;13.436;2022-10-15T08:41:57;11.83;;;6.90;;
5149;SDS011;2593;52.466;13.436;2022-10-15T08:44:27;6.90;;;6.20;;
5149;SDS011;2593;52.466;13.436;2022-10-15T08:46:58;10.90;;;6.97;;
5149;SDS011;2593;52.466;13.436;2022-10-15T08:49:37;7.10;;;5.87;;
5149;SDS011;2593;52.466;13.436;2022-10-15T08:52:19;5.43;;;4.93;;
5149;SDS011;2593;52.466;13.436;2022-10-15T08:54:50;13.90;;;6.10;;
5149;SDS011;2593;52.466;13.436;2022-10-15T08:57:23;8.70;;;6.37;;
5149;SDS011;2593;52.466;13.436;2022-10-15T09:00:08;7.97;;;6.60;;
5149;SDS011;2593;52.466;13.436;2022-10-15T09:02:41;9.27;;;6.37;;
5149;SDS011;2593;52.466;13.436;2022-10-15T09:08:21;11.33;;;6.00;;
5149;SDS011;2593;52.466;13.436;2022-10-15T09:11:10;8.10;;;5.50;;
5149;SDS011;2593;52.466;13.436;2022-10-15T09:13:42;8.07;;;6.00;;
5149;SDS011;2593;52.466;13.436;2022-10-15T09:16:11;5.50;;;4.90;;
5149;SDS011;2593;52.466;13.436;2022-10-15T09:18:44;6.33;;;5.50;;
5149;SDS011;2593;52.466;13.436;2022-10-15T09:21:12;16.00;;;5.20;;
5149;SDS011;2593;52.466;13.436;2022-10-15T09:23:38;6.67;;;5.40;;
5149;SDS011;2593;52.466;13.436;2022-10-15T09:26:14;7.93;;;6.20;;
5149;SDS011;2593;52.466;13.436;2022-10-15T09:28:42;7.93;;;6.17;;
5149;SDS011;2593;52.466;13.436;2022-10-15T09:31:16;7.70;;;5.23;;
5149;SDS011;2593;52.466;13.436;2022-10-15T09:33:59;6.80;;;6.20;;
5149;SDS011;2593;52.466;13.436;2022-10-15T09:36:51;13.40;;;6.40;;
5149;SDS011;2593;52.466;13.436;2022-10-15T09:42:52;15.23;;;7.10;;
5149;SDS011;2593;52.466;13.436;2022-10-15T09:45:19;10.10;;;5.67;;
5149;SDS011;2593;52.466;13.436;2022-10-15T09:47:48;5.40;;;4.75;;
5149;SDS011;2593;52.466;13.436;2022-10-15T09:50:14;7.60;;;5.57;;
5149;SDS011;2593;52.466;13.436;2022-10-15T09:58:29;5.88;;;5.28;;
5149;SDS011;2593;52.466;13.436;2022-10-15T10:01:03;7.78;;;5.50;;
5149;SDS011;2593;52.466;13.436;2022-10-15T10:03:31;6.35;;;5.45;;
5149;SDS011;2593;52.466;13.436;2022-10-15T10:06:08;5.72;;;4.95;;
5149;SDS011;2593;52.466;13.436;2022-10-15T10:08:39;5.70;;;4.93;;
5149;SDS011;2593;52.466;13.436;2022-10-15T10:11:16;5.73;;;5.20;;
5149;SDS011;2593;52.466;13.436;2022-10-15T10:13:45;5.73;;;5.17;;
5149;SDS011;2593;52.466;13.436;2022-10-15T10:16:24;6.50;;;5.90;;
5149;SDS011;2593;52.466;13.436;2022-10-15T10:21:39;5.10;;;4.60;;
5149;SDS011;2593;52.466;13.436;2022-10-15T10:26:54;11.93;;;6.17;;
5149;SDS011;2593;52.466;13.436;2022-10-15T10:29:20;7.17;;;5.60;;
5149;SDS011;2593;52.466;13.436;2022-10-15T10:31:47;7.27;;;6.57;;
5149;SDS011;2593;52.466;13.436;2022-10-15T10:34:17;6.40;;;5.77;;
5149;SDS011;2593;52.466;13.436;2022-10-15T10:36:50;15.27;;;7.40;;
5149;SDS011;2593;52.466;13.436;2022-10-15T10:39:24;8.33;;;6.80;;
5149;SDS011;2593;52.466;13.436;2022-10-15T10:41:56;10.57;;;6.97;;
5149;SDS011;2593;52.466;13.436;2022-10-15T10:44:31;8.60;;;6.40;;
5149;SDS011;2593;52.466;13.436;2022-10-15T10:47:15;8.67;;;6.17;;
5149;SDS011;2593;52.466;13.436;2022-10-15T10:49:41;6.60;;;5.90;;
5149;SDS011;2593;52.466;13.436;2022-10-15T10:54:57;6.77;;;6.03;;
5149;SDS011;2593;52.466;13.436;2022-10-15T10:57:27;10.67;;;6.53;;
5149;SDS011;2593;52.466;13.436;2022-10-15T11:00:07;8.03;;;4.87;;
5149;SDS011;2593;52.466;13.436;2022-10-15T11:02:36;9.07;;;6.70;;
5149;SDS011;2593;52.466;13.436;2022-10-15T11:05:05;12.20;;;6.50;;
5149;SDS011;2593;52.466;13.436;2022-10-15T11:07:45;6.90;;;6.20;;
5149;SDS011;2593;52.466;13.436;2022-10-15T11:10:25;19.93;;;6.80;;
5149;SDS011;2593;52.466;13.436;2022-10-15T11:23:43;8.90;;;5.60;;
5149;SDS011;2593;52.466;13.436;2022-10-15T11:26:27;7.43;;;6.33;;
5149;SDS011;2593;52.466;13.436;2022-10-15T11:31:54;5.80;;;5.00;;
5149;SDS011;2593;52.466;13.436;2022-10-15T11:34:51;4.63;;;4.23;;
5149;SDS011;2593;52.466;13.436;2022-10-15T11:40:22;4.73;;;4.23;;
5149;SDS011;2593;52.466;13.436;2022-10-15T11:42:59;4.60;;;4.20;;
5149;SDS011;2593;52.466;13.436;2022-10-15T11:45:31;5.90;;;5.30;;
5149;SDS011;2593;52.466;13.436;2022-10-15T11:48:36;5.20;;;4.70;;
5149;SDS011;2593;52.466;13.436;2022-10-15T11:56:37;6.73;;;4.37;;
5149;SDS011;2593;52.466;13.436;2022-10-15T12:02:21;5.90;;;5.07;;
5149;SDS011;2593;52.466;13.436;2022-10-15T12:04:59;9.03;;;7.40;;
5149;SDS011;2593;52.466;13.436;2022-10-15T12:07:43;6.20;;;5.60;;
5149;SDS011;2593;52.466;13.436;2022-10-15T12:12:38;6.23;;;5.33;;
5149;SDS011;2593;52.466;13.436;2022-10-15T12:15:34;8.40;;;4.90;;
5149;SDS011;2593;52.466;13.436;2022-10-15T12:18:26;5.37;;;3.83;;
5149;SDS011;2593;52.466;13.436;2022-10-15T12:21:02;3.27;;;2.97;;
5149;SDS011;2593;52.466;13.436;2022-10-15T12:26:02;3.80;;;3.50;;
5149;SDS011;2593;52.466;13.436;2022-10-15T12:28:47;5.43;;;4.00;;
5149;SDS011;2593;52.466;13.436;2022-10-15T12:31:16;3.87;;;3.17;;
5149;SDS011;2593;52.466;13.436;2022-10-15T12:33:46;4.30;;;3.90;;
5149;SDS011;2593;52.466;13.436;2022-10-15T12:39:02;5.73;;;4.90;;
5149;SDS011;2593;52.466;13.436;2022-10-15T12:41:35;9.10;;;3.93;;
5149;SDS011;2593;52.466;13.436;2022-10-15T12:44:06;4.70;;;4.30;;
5149;SDS011;2593;52.466;13.436;2022-10-15T12:46:45;5.70;;;4.97;;
5149;SDS011;2593;52.466;13.436;2022-10-15T12:51:54;5.03;;;4.20;;
5149;SDS011;2593;52.466;13.436;2022-10-15T12:54:38;5.90;;;5.30;;
5149;SDS011;2593;52.466;13.436;2022-10-15T12:59:55;5.37;;;3.67;;
5149;SDS011;2593;52.466;13.436;2022-10-15T13:02:35;4.47;;;4.07;;
5149;SDS011;2593;52.466;13.436;2022-10-15T13:05:06;20.67;;;5.90;;
5149;SDS011;2593;52.466;13.436;2022-10-15T13:07:47;6.20;;;4.33;;
5149;SDS011;2593;52.466;13.436;2022-10-15T13:10:34;8.10;;;4.00;;
5149;SDS011;2593;52.466;13.436;2022-10-15T13:13:02;3.50;;;3.20;;
5149;SDS011;2593;52.466;13.436;2022-10-15T13:15:30;3.70;;;3.40;;
5149;SDS011;2593;52.466;13.436;2022-10-15T13:17:58;5.80;;;2.80;;
5149;SDS011;2593;52.466;13.436;2022-10-15T13:20:34;3.43;;;3.13;;
5149;SDS011;2593;52.466;13.436;2022-10-15T13:23:09;3.70;;;3.40;;
5149;SDS011;2593;52.466;13.436;2022-10-15T13:28:44;3.93;;;3.40;;
5149;SDS011;2593;52.466;13.436;2022-10-15T13:31:12;3.50;;;3.30;;
5149;SDS011;2593;52.466;13.436;2022-10-15T13:33:48;4.30;;;2.70;;
5149;SDS011;2593;52.466;13.436;2022-10-15T13:36:18;2.93;;;2.73;;
5149;SDS011;2593;52.466;13.436;2022-10-15T13:38:55;3.37;;;3.07;;
5149;SDS011;2593;52.466;13.436;2022-10-15T13:41:24;3.60;;;3.10;;
5149;SDS011;2593;52.466;13.436;2022-10-15T13:43:52;3.67;;;3.37;;
5149;SDS011;2593;52.466;13.436;2022-10-15T13:46:22;3.73;;;2.90;;
5149;SDS011;2593;52.466;13.436;2022-10-15T13:48:49;4.23;;;3.10;;
5149;SDS011;2593;52.466;13.436;2022-10-15T13:51:31;3.00;;;2.20;;
5149;SDS011;2593;52.466;13.436;2022-10-15T13:53:58;8.00;;;2.70;;
5149;SDS011;2593;52.466;13.436;2022-10-15T13:56:29;2.73;;;2.47;;
5149;SDS011;2593;52.466;13.436;2022-10-15T13:58:57;3.90;;;2.80;;
5149;SDS011;2593;52.466;13.436;2022-10-15T14:01:24;3.00;;;2.80;;
5149;SDS011;2593;52.466;13.436;2022-10-15T14:03:58;2.27;;;2.17;;
5149;SDS011;2593;52.466;13.436;2022-10-15T14:08:52;3.00;;;2.70;;
5149;SDS011;2593;52.466;13.436;2022-10-15T14:11:19;2.70;;;2.60;;
5149;SDS011;2593;52.466;13.436;2022-10-15T14:13:49;8.60;;;6.70;;
5149;SDS011;2593;52.466;13.436;2022-10-15T14:16:20;2.73;;;2.43;;
5149;SDS011;2593;52.466;13.436;2022-10-15T14:18:51;3.73;;;2.47;;
5149;SDS011;2593;52.466;13.436;2022-10-15T14:21:22;4.10;;;2.10;;
5149;SDS011;2593;52.466;13.436;2022-10-15T14:24:00;3.60;;;2.27;;
5149;SDS011;2593;52.466;13.436;2022-10-15T14:26:29;3.13;;;2.80;;
5149;SDS011;2593;52.466;13.436;2022-10-15T14:28:56;10.73;;;3.07;;
5149;SDS011;2593;52.466;13.436;2022-10-15T14:31:35;2.97;;;2.67;;
5149;SDS011;2593;52.466;13.436;2022-10-15T14:36:52;3.53;;;2.87;;
5149;SDS011;2593;52.466;13.436;2022-10-15T14:39:36;7.10;;;3.10;;
5149;SDS011;2593;52.466;13.436;2022-10-15T14:42:06;7.23;;;2.70;;
5149;SDS011;2593;52.466;13.436;2022-10-15T14:44:52;3.93;;;3.20;;
5149;SDS011;2593;52.466;13.436;2022-10-15T14:47:20;7.27;;;3.20;;
5149;SDS011;2593;52.466;13.436;2022-10-15T14:49:57;3.53;;;2.87;;
5149;SDS011;2593;52.466;13.436;2022-10-15T14:52:25;4.10;;;3.00;;
5149;SDS011;2593;52.466;13.436;2022-10-15T14:57:37;2.73;;;2.43;;
5149;SDS011;2593;52.466;13.436;2022-10-15T15:00:09;2.33;;;2.00;;
5149;SDS011;2593;52.466;13.436;2022-10-15T15:02:46;2.60;;;2.40;;
5149;SDS011;2593;52.466;13.436;2022-10-15T15:07:38;6.10;;;2.20;;
5149;SDS011;2593;52.466;13.436;2022-10-15T15:10:05;4.50;;;2.03;;
5149;SDS011;2593;52.466;13.436;2022-10-15T15:12:32;2.87;;;2.30;;
5149;SDS011;2593;52.466;13.436;2022-10-15T15:14:58;2.17;;;2.07;;
5149;SDS011;2593;52.466;13.436;2022-10-15T15:17:25;2.53;;;2.33;;
5149;SDS011;2593;52.466;13.436;2022-10-15T15:19:53;2.70;;;2.47;;
5149;SDS011;2593;52.466;13.436;2022-10-15T15:22:30;1.67;;;1.57;;
5149;SDS011;2593;52.466;13.436;2022-10-15T15:24:58;4.20;;;1.47;;
5149;SDS011;2593;52.466;13.436;2022-10-15T15:27:29;4.53;;;1.63;;
5149;SDS011;2593;52.466;13.436;2022-10-15T15:30:00;1.90;;;1.70;;
5149;SDS011;2593;52.466;13.436;2022-10-15T15:32:27;2.17;;;1.93;;
5149;SDS011;2593;52.466;13.436;2022-10-15T15:34:52;5.17;;;2.20;;
5149;SDS011;2593;52.466;13.436;2022-10-15T15:37:20;2.63;;;2.43;;
5149;SDS011;2593;52.466;13.436;2022-10-15T15:39:48;7.30;;;2.57;;
5149;SDS011;2593;52.466;13.436;2022-10-15T15:42:14;4.10;;;2.40;;
5149;SDS011;2593;52.466;13.436;2022-10-15T15:44:41;6.67;;;2.50;;
5149;SDS011;2593;52.466;13.436;2022-10-15T15:47:07;2.20;;;2.10;;
5149;SDS011;2593;52.466;13.436;2022-10-15T15:49:33;4.63;;;2.57;;
5149;SDS011;2593;52.466;13.436;2022-10-15T15:51:59;4.60;;;3.43;;
5149;SDS011;2593;52.466;13.436;2022-10-15T15:54:25;7.40;;;3.33;;
5149;SDS011;2593;52.466;13.436;2022-10-15T15:56:50;4.33;;;3.30;;
5149;SDS011;2593;52.466;13.436;2022-10-15T15:59:16;3.60;;;3.30;;
5149;SDS011;2593;52.466;13.436;2022-10-15T16:01:43;5.43;;;3.30;;
5149;SDS011;2593;52.466;13.436;2022-10-15T16:04:10;13.30;;;3.80;;
5149;SDS011;2593;52.466;13.436;2022-10-15T16:06:39;8.77;;;3.57;;
5149;SDS011;2593;52.466;13.436;2022-10-15T16:09:06;5.03;;;3.53;;
5149;SDS011;2593;52.466;13.436;2022-10-15T16:11:32;7.90;;;3.80;;
5149;SDS011;2593;52.466;13.436;2022-10-15T16:13:58;5.60;;;4.10;;
5149;SDS011;2593;52.466;13.436;2022-10-15T16:16:24;7.33;;;3.37;;
5149;SDS011;2593;52.466;13.436;2022-10-15T16:18:50;4.13;;;3.67;;
5149;SDS011;2593;52.466;13.436;2022-10-15T16:21:24;4.57;;;4.10;;
5149;SDS011;2593;52.466;13.436;2022-10-15T16:23:50;5.67;;;4.20;;
5149;SDS011;2593;52.466;13.436;2022-10-15T16:26:16;4.80;;;4.20;;
5149;SDS011;2593;52.466;13.436;2022-10-15T16:28:43;7.10;;;5.57;;
5149;SDS011;2593;52.466;13.436;2022-10-15T16:33:44;6.00;;;5.40;;
5149;SDS011;2593;52.466;13.436;2022-10-15T16:36:10;8.20;;;5.40;;
5149;SDS011;2593;52.466;13.436;2022-10-15T16:38:37;7.73;;;4.93;;
5149;SDS011;2593;52.466;13.436;2022-10-15T16:41:04;9.50;;;5.97;;